Time;durP1;ratioP1;P1;durP2;ratioP2;P2;SDS_P1;SDS_P2;PMS_P1;PMS_P2;Temp;Humidity;BMP_temperature;BMP_pressure;BME280_temperature;BME280_humidity;BME280_pressure;Samples;Min_cycle;Max_cycle;Signal;HPM_P1;HPM_P2
2021/12/05 00:17:09;;;;;;;17.83;7.15;;;4.10;99.90;;;;;;4987381;28;20464;-83
2021/12/05 00:18:08;;;;;;;;;;;4.00;99.90;;;;;;4984155;28;20085;-87
2021/12/05 00:21:00;;;;;;;;;;;4.00;99.90;;;;;;4993501;28;19926;-83
2021/12/05 00:23:40;;;;;;;8.68;4.63;;;4.30;99.90;;;;;;4982408;28;19929;-88
2021/12/05 00:26:12;;;;;;;11.25;4.68;;;4.00;99.90;;;;;;4977782;28;20410;-88
2021/12/05 00:29:04;;;;;;;9.38;5.20;;;4.00;99.90;;;;;;4988463;28;20050;-79
2021/12/05 00:39:56;;;;;;;14.05;4.60;;;4.00;99.90;;;;;;4969757;28;20133;-78
2021/12/05 00:55:30;;;;;;;8.95;4.82;;;3.90;99.90;;;;;;4982317;28;20050;-86
2021/12/05 01:03:34;;;;;;;14.88;4.90;;;3.90;99.90;;;;;;4985233;28;20117;-88
2021/12/05 01:06:39;;;;;;;11.13;5.25;;;4.00;99.90;;;;;;4988422;28;20038;-84
2021/12/05 01:12:06;;;;;;;13.27;4.90;;;3.90;99.90;;;;;;4986356;28;20117;-87
2021/12/05 01:16:42;;;;;;;14.55;4.38;;;3.90;99.90;;;;;;4987359;28;20097;-88
2021/12/05 01:19:10;;;;;;;11.27;4.80;;;4.00;99.90;;;;;;4986887;28;20046;-82
2021/12/05 01:21:39;;;;;;;12.30;5.05;;;4.00;99.90;;;;;;4987509;28;20042;-81
2021/12/05 01:24:21;;;;;;;7.05;4.20;;;4.00;99.90;;;;;;4977875;28;20138;-80
2021/12/05 01:26:56;;;;;;;12.80;4.65;;;4.90;99.90;;;;;;4984866;28;20051;-86
2021/12/05 01:37:31;;;;;;;11.02;5.18;;;3.90;99.90;;;;;;4987126;28;20548;-89
2021/12/05 01:56:18;;;;;;;10.15;5.20;;;4.00;99.90;;;;;;4988702;28;20131;-85
2021/12/05 01:59:09;;;;;;;14.70;5.18;;;4.00;99.90;;;;;;4973628;28;20051;-86
2021/12/05 02:02:38;;;;;;;9.45;4.90;;;4.00;99.90;;;;;;4986711;28;20137;-86
2021/12/05 02:15:49;;;;;;;9.27;4.90;;;4.60;99.90;;;;;;4990911;28;20049;-81
2021/12/05 02:35:03;;;;;;;11.38;5.72;;;4.00;99.90;;;;;;4990599;28;20046;-81
2021/12/05 02:42:54;;;;;;;9.68;5.35;;;4.00;99.90;;;;;;4986564;28;20074;-86
2021/12/05 02:45:20;;;;;;;13.98;5.38;;;4.00;99.90;;;;;;4982010;28;20042;-79
2021/12/05 02:47:50;;;;;;;9.52;5.07;;;4.00;99.90;;;;;;4985073;28;20414;-86
2021/12/05 02:50:18;;;;;;;10.55;5.68;;;4.00;99.90;;;;;;4987613;28;20145;-79
2021/12/05 02:52:44;;;;;;;11.80;4.88;;;3.90;99.90;;;;;;4991209;28;20507;-87
2021/12/05 02:55:35;;;;;;;15.90;5.70;;;4.00;99.90;;;;;;4986543;28;20057;-83
2021/12/05 02:58:04;;;;;;;13.90;5.03;;;4.00;99.90;;;;;;4987488;28;20043;-84
2021/12/05 03:01:21;;;;;;;10.80;5.00;;;4.00;99.90;;;;;;4975069;28;20035;-81
2021/12/05 03:03:25;;;;;;;12.18;5.07;;;4.00;99.90;;;;;;4978013;28;20046;-85
2021/12/05 03:05:59;;;;;;;16.20;4.68;;;4.00;99.90;;;;;;4981335;28;20047;-78
2021/12/05 03:08:25;;;;;;;10.10;4.90;;;3.90;99.90;;;;;;4991123;28;20410;-85
2021/12/05 03:10:53;;;;;;;11.23;4.95;;;5.50;99.90;;;;;;4991196;28;20034;-85
2021/12/05 03:13:19;;;;;;;15.45;5.75;;;4.00;99.90;;;;;;4987504;28;20104;-85
2021/12/05 03:15:44;;;;;;;11.18;5.20;;;5.50;99.90;;;;;;4993703;28;20046;-78
2021/12/05 03:18:10;;;;;;;12.55;5.13;;;4.00;99.90;;;;;;4972586;28;20050;-80
2021/12/05 03:20:36;;;;;;;12.07;5.60;;;4.00;99.90;;;;;;4974805;28;20493;-82
2021/12/05 03:23:02;;;;;;;13.32;6.00;;;5.30;99.90;;;;;;4986241;28;20138;-79
2021/12/05 03:25:28;;;;;;;19.05;6.45;;;4.00;99.90;;;;;;4986183;28;20155;-89
2021/12/05 03:27:54;;;;;;;12.60;6.63;;;5.70;99.90;;;;;;4982940;28;20038;-87
2021/12/05 03:30:22;;;;;;;19.27;6.78;;;3.90;99.90;;;;;;4985713;28;20043;-83
2021/12/05 03:32:50;;;;;;;13.82;6.70;;;4.00;99.90;;;;;;4984055;28;20133;-81
2021/12/05 03:35:18;;;;;;;12.05;6.18;;;4.00;99.90;;;;;;4987323;28;20475;-79
2021/12/05 03:37:45;;;;;;;13.75;7.20;;;3.90;99.90;;;;;;4981756;28;20121;-83
2021/12/05 03:40:11;;;;;;;14.57;6.55;;;3.90;99.90;;;;;;4981532;28;20035;-81
2021/12/05 03:42:37;;;;;;;17.05;7.80;;;3.90;99.90;;;;;;4985069;28;20050;-77
2021/12/05 03:45:07;;;;;;;16.60;7.07;;;3.90;99.90;;;;;;4989386;28;20105;-80
2021/12/05 03:47:32;;;;;;;15.45;7.95;;;3.90;99.90;;;;;;4982677;28;20499;-87
2021/12/05 03:49:58;;;;;;;16.20;7.32;;;3.80;99.90;;;;;;4990307;28;20053;-86
2021/12/05 03:52:24;;;;;;;19.42;7.53;;;3.70;99.90;;;;;;4989559;28;20046;-77
2021/12/05 03:54:50;;;;;;;23.58;7.93;;;3.90;99.90;;;;;;4981595;28;20505;-79
2021/12/05 03:57:16;;;;;;;22.13;8.27;;;4.10;99.90;;;;;;4987142;28;20039;-76
2021/12/05 03:59:44;;;;;;;19.20;7.50;;;3.80;99.90;;;;;;4989536;28;20113;-79
2021/12/05 04:02:10;;;;;;;18.17;8.80;;;3.90;99.90;;;;;;4981835;28;20042;-82
2021/12/05 04:04:36;;;;;;;21.67;8.68;;;3.80;99.90;;;;;;4984126;28;20085;-78
2021/12/05 04:07:03;;;;;;;20.55;8.00;;;3.80;99.90;;;;;;4989458;28;20109;-78
2021/12/05 04:09:29;;;;;;;27.90;9.63;;;3.80;99.90;;;;;;4988099;28;20043;-89
2021/12/05 04:12:01;;;;;;;24.23;8.77;;;3.90;99.90;;;;;;4989631;28;20093;-81
2021/12/05 04:14:31;;;;;;;23.65;8.52;;;3.90;99.90;;;;;;4984058;28;20547;-83
2021/12/05 04:16:57;;;;;;;22.27;8.45;;;3.80;99.90;;;;;;4982391;28;20050;-82
2021/12/05 04:19:23;;;;;;;23.98;9.20;;;3.90;99.90;;;;;;4986613;28;20031;-87
2021/12/05 04:21:49;;;;;;;20.67;9.18;;;4.20;99.90;;;;;;4990885;28;20042;-85
2021/12/05 04:24:15;;;;;;;19.20;10.00;;;3.90;99.90;;;;;;4990915;28;20498;-82
2021/12/05 04:26:41;;;;;;;16.92;9.73;;;3.80;99.90;;;;;;4987979;28;20034;-88
2021/12/05 04:29:10;;;;;;;19.02;9.73;;;3.90;99.90;;;;;;4984557;28;20035;-86
2021/12/05 04:31:38;;;;;;;18.13;9.18;;;3.90;99.90;;;;;;4982928;28;20074;-79
2021/12/05 04:34:04;;;;;;;22.60;9.93;;;3.80;99.90;;;;;;4987520;28;20046;-79
2021/12/05 04:36:30;;;;;;;27.08;9.60;;;3.80;99.90;;;;;;4987194;28;20051;-82
2021/12/05 04:38:56;;;;;;;24.80;10.15;;;4.10;99.90;;;;;;4983677;28;20049;-80
2021/12/05 04:41:23;;;;;;;17.13;9.55;;;3.90;99.90;;;;;;4988581;28;20042;-87
2021/12/05 04:43:50;;;;;;;24.55;8.85;;;3.80;99.90;;;;;;4983133;28;20553;-81
2021/12/05 04:46:23;;;;;;;26.13;10.00;;;3.80;99.90;;;;;;4986253;28;20085;-85
2021/12/05 04:48:51;;;;;;;22.10;9.98;;;4.00;99.90;;;;;;4984308;28;20779;-84
2021/12/05 04:51:19;;;;;;;26.23;10.15;;;3.80;99.90;;;;;;4986364;28;20054;-85
2021/12/05 04:53:45;;;;;;;29.08;10.32;;;3.70;99.90;;;;;;4987938;28;20391;-76
2021/12/05 04:56:11;;;;;;;26.20;10.43;;;3.70;99.90;;;;;;4985685;28;20045;-84
2021/12/05 04:58:37;;;;;;;24.73;9.75;;;3.70;99.90;;;;;;4970862;28;20376;-89
2021/12/05 05:01:03;;;;;;;22.95;9.20;;;3.70;99.90;;;;;;4987398;28;20038;-84
2021/12/05 05:03:29;;;;;;;24.20;9.82;;;3.70;99.90;;;;;;4986688;28;20046;-89
2021/12/05 05:06:02;;;;;;;19.85;9.40;;;5.30;99.90;;;;;;4990390;28;20509;-83
2021/12/05 05:08:30;;;;;;;32.15;9.50;;;3.60;99.90;;;;;;4992596;28;20096;-86
2021/12/05 05:11:00;;;;;;;18.23;9.40;;;3.60;99.90;;;;;;4976840;28;20043;-86
2021/12/05 05:13:26;;;;;;;22.35;9.05;;;3.60;99.90;;;;;;4997934;28;20129;-82
2021/12/05 05:15:53;;;;;;;24.15;9.52;;;3.90;99.90;;;;;;4989279;28;20114;-82
2021/12/05 05:18:20;;;;;;;28.70;9.63;;;3.60;99.90;;;;;;4991992;28;20050;-84
2021/12/05 05:21:10;;;;;;;24.77;9.30;;;3.60;99.90;;;;;;4993026;28;20038;-87
2021/12/05 05:23:48;;;;;;;25.25;8.57;;;3.60;99.90;;;;;;4992958;28;20069;-81
2021/12/05 05:29:22;;;;;;;30.52;10.00;;;3.60;99.90;;;;;;4993334;28;20054;-79
2021/12/05 05:40:15;;;;;;;23.60;8.40;;;3.60;99.90;;;;;;4991782;28;20042;-79
2021/12/05 05:45:49;;;;;;;24.05;9.02;;;3.50;99.90;;;;;;4990669;28;20078;-84
2021/12/05 05:48:33;;;;;;;19.25;7.32;;;3.50;99.90;;;;;;4993727;28;20125;-85
2021/12/05 05:51:00;;;;;;;24.00;7.82;;;3.40;99.90;;;;;;4972017;28;20038;-90
2021/12/05 05:53:26;;;;;;;21.85;7.03;;;3.40;99.90;;;;;;4991046;28;20047;-79
2021/12/05 05:55:54;;;;;;;20.92;7.72;;;3.40;99.90;;;;;;4989838;28;20046;-82
2021/12/05 05:58:26;;;;;;;25.48;8.00;;;5.10;99.90;;;;;;4986535;28;20046;-87
2021/12/05 06:01:03;;;;;;;16.52;6.35;;;3.40;99.90;;;;;;4989070;28;20082;-84
2021/12/05 06:03:30;;;;;;;19.50;7.75;;;3.40;99.90;;;;;;4997240;28;20465;-77
2021/12/05 06:06:03;;;;;;;21.90;6.65;;;3.40;99.90;;;;;;4993826;28;20055;-86
2021/12/05 06:08:32;;;;;;;17.13;6.72;;;3.40;99.90;;;;;;4996168;28;20457;-80
2021/12/05 06:11:01;;;;;;;20.58;7.65;;;3.40;99.90;;;;;;4995123;28;20050;-89
2021/12/05 06:13:28;;;;;;;19.38;6.20;;;3.30;99.90;;;;;;4993777;28;20447;-85
2021/12/05 06:15:54;;;;;;;17.08;6.72;;;4.20;99.90;;;;;;4991049;28;20042;-85
2021/12/05 06:18:21;;;;;;;20.17;7.13;;;3.30;99.90;;;;;;4990002;28;20476;-80
2021/12/05 06:20:47;;;;;;;16.25;7.10;;;4.10;99.90;;;;;;4993858;28;20445;-86
2021/12/05 06:23:13;;;;;;;25.17;8.18;;;4.50;99.90;;;;;;4991426;28;20475;-89
2021/12/05 06:25:42;;;;;;;21.42;7.68;;;3.30;99.90;;;;;;4992941;28;20109;-88
2021/12/05 06:28:14;;;;;;;22.48;7.50;;;3.60;99.90;;;;;;4988764;28;20466;-89
2021/12/05 06:46:52;;;;;;;15.15;5.45;;;3.70;99.90;;;;;;4967806;28;20007;-84
2021/12/05 06:49:17;;;;;;;20.00;5.85;;;3.20;99.90;;;;;;4986079;28;20508;-85
2021/12/05 06:51:43;;;;;;;16.63;6.32;;;3.20;99.90;;;;;;4989042;28;20042;-80
2021/12/05 06:54:08;;;;;;;22.10;5.72;;;3.20;99.90;;;;;;4975301;28;20096;-78
2021/12/05 06:56:34;;;;;;;13.70;5.70;;;3.20;99.90;;;;;;4985091;28;20105;-88
2021/12/05 06:59:00;;;;;;;19.45;6.05;;;3.20;99.90;;;;;;4991203;28;20034;-87
2021/12/05 07:01:26;;;;;;;15.55;5.55;;;3.20;99.90;;;;;;4987269;28;20058;-87
2021/12/05 07:03:52;;;;;;;15.88;5.80;;;3.20;99.90;;;;;;4988169;28;20042;-81
2021/12/05 07:06:25;;;;;;;16.25;5.88;;;3.20;99.90;;;;;;4989668;28;20038;-85
2021/12/05 07:08:54;;;;;;;13.95;6.55;;;3.20;99.90;;;;;;4994437;28;20040;-89
2021/12/05 07:11:29;;;;;;;16.90;5.63;;;3.20;99.90;;;;;;4992596;28;20068;-82
2021/12/05 07:16:41;;;;;;;17.83;5.90;;;3.30;99.90;;;;;;4982987;28;20112;-86
2021/12/05 07:19:24;;;;;;;14.57;5.97;;;3.20;99.90;;;;;;4984190;28;20054;-86
2021/12/05 07:21:56;;;;;;;17.58;5.82;;;3.20;99.90;;;;;;4987118;28;20517;-77
2021/12/05 07:24:44;;;;;;;17.48;6.15;;;3.30;99.90;;;;;;4969621;28;20139;-84
2021/12/05 07:40:51;;;;;;;23.65;6.80;;;3.20;99.90;;;;;;4990166;28;20050;-87
2021/12/05 07:43:18;;;;;;;15.80;6.03;;;3.20;99.90;;;;;;4985327;28;20057;-82
2021/12/05 07:45:57;;;;;;;17.55;6.47;;;3.20;99.90;;;;;;4969020;28;20124;-78
2021/12/05 07:48:28;;;;;;;23.17;8.15;;;3.20;99.90;;;;;;4988760;28;20042;-77
2021/12/05 07:51:09;;;;;;;22.50;6.50;;;3.20;99.90;;;;;;4992162;28;20121;-85
2021/12/05 07:56:18;;;;;;;19.20;6.95;;;3.20;99.90;;;;;;4990927;28;20054;-82
2021/12/05 08:15:24;;;;;;;17.60;7.55;;;3.20;99.90;;;;;;4987119;28;20054;-85
2021/12/05 08:17:52;;;;;;;16.48;7.53;;;3.30;99.90;;;;;;4991970;28;20042;-87
2021/12/05 08:20:25;;;;;;;22.08;7.97;;;2.10;99.90;;;;;;4990383;28;20482;-76
2021/12/05 08:22:51;;;;;;;18.35;9.43;;;3.30;99.90;;;;;;4980423;28;20039;-88
2021/12/05 08:25:20;;;;;;;18.05;9.15;;;3.30;99.90;;;;;;4986355;28;20132;-79
2021/12/05 08:27:50;;;;;;;17.17;8.88;;;3.30;99.90;;;;;;4979519;28;20138;-78
2021/12/05 08:30:26;;;;;;;16.27;9.45;;;3.30;99.90;;;;;;4983163;28;20042;-77
2021/12/05 08:33:11;;;;;;;18.02;9.35;;;3.30;99.90;;;;;;4988011;28;20069;-78
2021/12/05 10:07:45;;;;;;;23.13;11.77;;;3.80;99.90;;;;;;4988982;28;20050;-82
2021/12/05 10:15:41;;;;;;;24.83;10.75;;;3.90;99.90;;;;;;4991700;28;20042;-86
2021/12/05 10:27:13;;;;;;;22.02;10.40;;;3.80;99.90;;;;;;4991516;28;20081;-82
2021/12/05 10:38:08;;;;;;;17.92;10.07;;;3.80;99.90;;;;;;4303015;28;10000740;-77
2021/12/05 10:40:42;;;;;;;31.75;11.13;;;3.90;99.90;;;;;;4987741;28;20527;-78
2021/12/05 10:43:20;;;;;;;25.00;10.30;;;3.80;99.90;;;;;;4985748;28;20042;-75
2021/12/05 10:45:46;;;;;;;21.48;10.35;;;5.60;99.90;;;;;;4989342;28;20042;-78
2021/12/05 10:48:22;;;;;;;23.83;10.77;;;3.80;99.90;;;;;;4985461;28;20383;-77
2021/12/05 10:50:51;;;;;;;27.15;10.98;;;3.40;99.90;;;;;;4987889;28;20149;-89
2021/12/05 10:53:38;;;;;;;16.85;10.48;;;3.70;99.90;;;;;;4989394;28;20387;-77
2021/12/05 10:56:23;;;;;;;21.35;11.07;;;2.40;99.90;;;;;;4986453;28;20038;-77
2021/12/05 10:59:01;;;;;;;18.60;11.55;;;2.70;99.90;;;;;;4988069;28;20454;-76
2021/12/05 11:01:27;;;;;;;21.02;11.25;;;3.80;99.90;;;;;;4988297;28;20046;-76
2021/12/05 11:03:58;;;;;;;18.05;9.85;;;3.90;99.90;;;;;;4987747;28;20050;-79
2021/12/05 11:06:28;;;;;;;17.35;10.82;;;3.90;99.90;;;;;;4989741;28;20650;-87
2021/12/05 11:08:59;;;;;;;22.45;10.85;;;3.70;99.90;;;;;;4988609;28;20053;-84
2021/12/05 11:11:26;;;;;;;18.85;10.40;;;3.90;99.90;;;;;;4977377;28;20054;-89
2021/12/05 11:13:52;;;;;;;22.10;10.68;;;3.50;99.90;;;;;;4985080;28;20078;-89
2021/12/05 11:16:43;;;;;;;20.60;10.10;;;3.80;99.90;;;;;;4980405;28;20038;-89
2021/12/05 11:19:16;;;;;;;16.95;10.00;;;3.80;99.90;;;;;;4986359;28;20660;-87
2021/12/05 11:21:49;;;;;;;21.80;9.95;;;3.90;99.90;;;;;;4992038;28;20046;-91
2021/12/05 11:24:19;;;;;;;15.88;10.60;;;4.50;99.90;;;;;;4987364;28;20069;-77
2021/12/05 11:27:06;;;;;;;24.10;11.15;;;3.90;99.90;;;;;;4982712;28;20051;-83
2021/12/05 11:29:45;;;;;;;22.33;9.32;;;3.90;99.90;;;;;;4989847;28;20047;-84
2021/12/05 11:32:16;;;;;;;20.98;10.00;;;3.90;99.90;;;;;;4984929;28;20065;-86
2021/12/05 11:34:43;;;;;;;15.82;9.00;;;3.80;99.90;;;;;;4990774;28;20093;-87
2021/12/05 11:37:09;;;;;;;22.25;9.25;;;3.80;99.90;;;;;;4987029;28;20129;-81
2021/12/05 11:39:34;;;;;;;18.60;9.02;;;4.20;99.90;;;;;;4982868;28;20129;-84
2021/12/05 11:42:00;;;;;;;17.80;9.27;;;3.90;99.90;;;;;;4990780;28;20050;-81
2021/12/05 11:44:26;;;;;;;16.70;9.32;;;3.90;99.90;;;;;;4989390;28;20075;-84
2021/12/05 11:46:52;;;;;;;15.88;8.60;;;3.90;99.90;;;;;;4985647;28;20133;-91
2021/12/05 11:49:21;;;;;;;23.52;9.40;;;3.90;99.90;;;;;;4984915;28;20121;-84
2021/12/05 11:51:52;;;;;;;16.73;8.52;;;3.90;99.90;;;;;;4989246;28;20049;-95
2021/12/05 11:54:20;;;;;;;18.55;8.48;;;4.00;99.90;;;;;;4992842;28;20054;-91
2021/12/05 11:56:57;;;;;;;15.52;8.00;;;4.00;99.90;;;;;;4989363;28;20124;-77
2021/12/05 11:59:27;;;;;;;13.40;8.07;;;4.00;99.90;;;;;;4981596;28;20046;-94
2021/12/05 12:01:56;;;;;;;21.58;7.90;;;4.00;99.90;;;;;;4991558;28;20054;-92
2021/12/05 12:04:25;;;;;;;14.13;8.80;;;4.00;99.90;;;;;;4976462;28;20050;-80
2021/12/05 12:07:15;;;;;;;18.05;8.13;;;4.00;99.90;;;;;;4995815;28;20076;-90
2021/12/05 12:09:42;;;;;;;20.83;8.75;;;4.10;99.90;;;;;;4985027;28;20431;-78
2021/12/05 12:12:08;;;;;;;14.65;7.55;;;4.10;99.90;;;;;;4988589;28;20044;-82
2021/12/05 12:14:34;;;;;;;15.70;8.00;;;4.40;99.90;;;;;;4991070;28;20066;-80
2021/12/05 12:17:02;;;;;;;22.00;8.70;;;4.10;99.90;;;;;;4992447;28;20046;-82
2021/12/05 12:19:27;;;;;;;15.60;8.98;;;4.10;99.90;;;;;;4989874;28;20041;-80
2021/12/05 12:21:57;;;;;;;16.73;8.20;;;5.70;99.90;;;;;;4984622;28;20129;-79
2021/12/05 12:24:24;;;;;;;21.65;8.73;;;4.10;99.90;;;;;;4978920;28;20559;-80
2021/12/05 12:26:51;;;;;;;14.05;8.20;;;4.20;99.90;;;;;;4984222;28;20041;-84
2021/12/05 12:29:17;;;;;;;20.85;8.38;;;4.20;99.90;;;;;;4989577;28;20117;-91
2021/12/05 12:31:47;;;;;;;18.33;9.25;;;4.20;99.90;;;;;;5005411;28;20050;-95
2021/12/05 12:34:18;;;;;;;15.45;9.00;;;4.20;99.90;;;;;;4994346;28;20050;-96
2021/12/05 12:36:51;;;;;;;13.07;8.57;;;4.30;99.90;;;;;;5004814;28;20427;-93
2021/12/05 12:39:17;;;;;;;19.45;8.35;;;4.30;99.90;;;;;;5000536;28;20034;-92
2021/12/05 12:42:02;;;;;;;19.05;8.40;;;4.30;99.90;;;;;;5194807;23;20069;-95
2021/12/05 12:44:29;;;;;;;18.60;8.30;;;4.40;99.90;;;;;;5176375;23;20068;-94
2021/12/05 12:49:33;;;;;;;15.02;7.45;;;4.40;99.90;;;;;;5065861;28;20060;-95
2021/12/05 12:52:05;;;;;;;18.23;7.85;;;4.50;99.90;;;;;;5042596;28;20020;-88
2021/12/05 12:54:40;;;;;;;14.18;7.25;;;4.50;99.90;;;;;;5057794;28;20083;-80
2021/12/05 12:57:16;;;;;;;15.13;8.10;;;4.50;99.90;;;;;;5057304;28;20052;-90
2021/12/05 12:59:47;;;;;;;16.48;8.57;;;4.50;99.90;;;;;;5050658;28;20055;-95
2021/12/05 13:10:33;;;;;;;13.55;6.70;;;4.60;99.90;;;;;;5060005;23;20080;-82
2021/12/05 13:13:04;;;;;;;11.55;6.82;;;4.60;99.90;;;;;;5053829;28;20098;-92
2021/12/05 13:15:34;;;;;;;14.32;7.50;;;4.60;99.90;;;;;;5053246;28;20045;-93
2021/12/05 13:18:13;;;;;;;12.93;7.25;;;4.60;99.90;;;;;;5054189;28;20041;-86
2021/12/05 13:20:41;;;;;;;14.02;7.40;;;4.60;99.90;;;;;;5054867;28;20067;-93
2021/12/05 13:23:11;;;;;;;11.68;7.43;;;4.70;99.90;;;;;;5047688;28;20143;-79
2021/12/05 13:26:02;;;;;;;17.40;6.95;;;4.60;99.90;;;;;;4703481;28;10000348;-89
2021/12/05 13:28:35;;;;;;;12.90;8.45;;;4.70;99.90;;;;;;5067868;28;20049;-79
2021/12/05 13:31:28;;;;;;;19.77;8.18;;;4.70;99.90;;;;;;5049100;28;20128;-78
2021/12/05 13:34:31;;;;;;;16.88;8.80;;;4.80;99.90;;;;;;5040996;28;20509;-82
2021/12/05 13:37:11;;;;;;;13.02;6.82;;;4.80;99.90;;;;;;5056456;28;20052;-78
2021/12/05 13:39:47;;;;;;;16.88;7.60;;;4.80;99.90;;;;;;5065941;28;20044;-81
2021/12/05 13:42:23;;;;;;;15.45;8.70;;;6.60;99.90;;;;;;5067170;28;20027;-78
2021/12/05 13:45:04;;;;;;;14.13;7.35;;;4.80;99.90;;;;;;5066060;28;20040;-83
2021/12/05 13:47:51;;;;;;;11.30;6.90;;;4.80;99.90;;;;;;5058195;28;20056;-79
2021/12/05 13:50:17;;;;;;;10.35;6.78;;;4.80;99.90;;;;;;5053837;28;20033;-79
2021/12/05 13:52:45;;;;;;;12.57;6.78;;;4.80;99.90;;;;;;5059863;22;20059;-82
2021/12/05 13:55:29;;;;;;;11.43;7.57;;;4.80;99.90;;;;;;5024239;28;20148;-80
2021/12/05 13:58:20;;;;;;;13.80;7.57;;;4.80;99.90;;;;;;5038790;28;20094;-94
2021/12/05 14:01:04;;;;;;;15.88;7.22;;;4.80;99.90;;;;;;5038955;28;20059;-89
2021/12/05 14:03:44;;;;;;;13.40;9.20;;;4.80;99.90;;;;;;5051089;28;20032;-78
2021/12/05 14:06:49;;;;;;;21.83;10.35;;;4.80;99.90;;;;;;5032643;28;20436;-81
2021/12/05 14:09:37;;;;;;;15.35;8.77;;;4.80;99.90;;;;;;5054641;28;20045;-87
2021/12/05 14:12:07;;;;;;;23.10;10.88;;;4.80;99.90;;;;;;5055903;28;20052;-77
2021/12/05 14:14:42;;;;;;;17.23;9.75;;;4.80;99.90;;;;;;5038211;22;20175;-78
2021/12/05 14:17:25;;;;;;;19.52;9.10;;;4.80;99.90;;;;;;5013702;28;20422;-90
2021/12/05 14:19:58;;;;;;;15.25;9.82;;;4.80;99.90;;;;;;5008274;28;20035;-83
2021/12/05 14:22:29;;;;;;;17.38;10.32;;;4.80;99.90;;;;;;5009504;28;20046;-91
2021/12/05 14:24:58;;;;;;;19.05;8.98;;;4.80;99.90;;;;;;5006851;28;20045;-93
2021/12/05 14:27:28;;;;;;;14.40;9.85;;;4.80;99.90;;;;;;5018392;28;20563;-91
2021/12/05 14:29:54;;;;;;;15.38;8.55;;;4.80;99.90;;;;;;5018075;28;20508;-91
2021/12/05 14:32:23;;;;;;;18.05;10.52;;;4.80;99.90;;;;;;5018024;28;20056;-94
2021/12/05 14:35:17;;;;;;;14.50;9.05;;;4.80;99.90;;;;;;5022403;28;20057;-80
2021/12/05 14:37:45;;;;;;;12.80;8.35;;;4.80;99.90;;;;;;5015858;28;20041;-78
2021/12/05 14:40:25;;;;;;;13.82;6.70;;;4.80;99.90;;;;;;5008268;28;20046;-85
2021/12/05 14:42:52;;;;;;;16.45;7.93;;;4.80;99.90;;;;;;5024863;28;20049;-88
2021/12/05 14:45:18;;;;;;;17.08;7.18;;;4.80;99.90;;;;;;5022899;28;20049;-78
2021/12/05 14:47:45;;;;;;;18.13;7.32;;;4.70;99.90;;;;;;5003760;28;20058;-84
2021/12/05 14:50:17;;;;;;;16.00;8.13;;;6.20;99.90;;;;;;5026568;28;20398;-83
2021/12/05 14:52:47;;;;;;;10.57;7.50;;;4.70;99.90;;;;;;5023017;28;20054;-92
2021/12/05 14:55:15;;;;;;;11.43;8.25;;;4.70;99.90;;;;;;5031169;28;20512;-78
2021/12/05 14:57:45;;;;;;;13.40;7.82;;;4.70;99.90;;;;;;5026042;28;20179;-80
2021/12/05 15:00:15;;;;;;;13.15;7.70;;;4.20;99.90;;;;;;5028328;28;20121;-83
2021/12/05 15:02:41;;;;;;;17.70;7.72;;;4.70;99.90;;;;;;5019905;28;20409;-94
2021/12/05 15:05:13;;;;;;;15.07;8.77;;;4.70;99.90;;;;;;5015637;28;20074;-89
2021/12/05 15:07:39;;;;;;;16.67;8.45;;;4.70;99.90;;;;;;5014614;28;20045;-89
2021/12/05 15:10:07;;;;;;;16.35;9.70;;;4.70;99.90;;;;;;5012839;28;20044;-78
2021/12/05 15:12:35;;;;;;;16.92;8.38;;;4.70;99.90;;;;;;5020372;28;20391;-78
2021/12/05 15:15:08;;;;;;;14.77;8.88;;;4.70;99.90;;;;;;5031784;28;20057;-89
2021/12/05 15:18:00;;;;;;;12.15;7.20;;;4.70;99.90;;;;;;5063909;23;20059;-85
2021/12/05 15:20:28;;;;;;;20.25;10.57;;;4.70;99.90;;;;;;5013162;23;20054;-82
2021/12/05 15:23:03;;;;;;;29.13;17.80;;;6.50;99.90;;;;;;5003741;28;20057;-86
2021/12/05 15:25:31;;;;;;;28.35;19.02;;;4.70;99.90;;;;;;5012051;28;20030;-78
2021/12/05 15:27:58;;;;;;;21.67;13.73;;;4.60;99.90;;;;;;5015428;28;20042;-79
2021/12/05 15:30:34;;;;;;;19.55;11.05;;;4.60;99.90;;;;;;5050647;23;20071;-77
2021/12/05 15:33:06;;;;;;;14.88;9.80;;;4.60;99.90;;;;;;5048864;22;20034;-80
2021/12/05 15:35:32;;;;;;;20.15;10.70;;;4.70;99.90;;;;;;5022315;28;20061;-78
2021/12/05 15:38:02;;;;;;;17.90;11.35;;;4.40;99.90;;;;;;5021847;28;20057;-90
2021/12/05 15:40:29;;;;;;;19.13;11.65;;;4.60;99.90;;;;;;5031250;28;20049;-82
2021/12/05 15:43:04;;;;;;;22.83;11.90;;;4.60;99.90;;;;;;5039245;28;20046;-90
2021/12/05 15:45:31;;;;;;;22.45;13.43;;;4.70;99.90;;;;;;5031744;28;20050;-89
2021/12/05 15:47:56;;;;;;;23.67;13.10;;;6.20;99.90;;;;;;5018120;28;20038;-84
2021/12/05 15:50:28;;;;;;;23.40;13.15;;;4.60;99.90;;;;;;5038910;28;20536;-82
2021/12/05 15:53:03;;;;;;;23.13;14.65;;;4.50;99.90;;;;;;5008617;28;20419;-88
2021/12/05 15:55:35;;;;;;;24.20;13.93;;;4.70;99.90;;;;;;5008688;28;20049;-81
2021/12/05 15:58:11;;;;;;;23.95;14.23;;;4.60;99.90;;;;;;5028760;28;20045;-83
2021/12/05 16:01:15;;;;;;;21.92;13.10;;;4.60;99.90;;;;;;5014946;28;20050;-82
2021/12/05 16:03:53;;;;;;;22.83;13.90;;;4.60;99.90;;;;;;5027651;28;20053;-78
2021/12/05 16:06:29;;;;;;;26.50;13.38;;;4.60;99.90;;;;;;5029730;28;20045;-79
2021/12/05 16:08:54;;;;;;;28.08;14.25;;;4.50;99.90;;;;;;5032384;28;20052;-81
2021/12/05 16:11:22;;;;;;;25.20;13.32;;;4.60;99.90;;;;;;5033377;28;20037;-94
2021/12/05 16:13:51;;;;;;;23.80;12.90;;;4.50;99.90;;;;;;5017031;28;20045;-90
2021/12/05 16:16:28;;;;;;;18.15;11.52;;;4.60;99.90;;;;;;5033976;28;20485;-95
2021/12/05 16:18:58;;;;;;;26.77;13.45;;;4.50;99.90;;;;;;5015538;28;20083;-78
2021/12/05 16:21:27;;;;;;;27.60;14.35;;;4.50;99.90;;;;;;5027075;28;20052;-82
2021/12/05 16:23:56;;;;;;;25.33;15.35;;;4.50;99.90;;;;;;5011605;28;20096;-82
2021/12/05 16:26:27;;;;;;;28.60;15.45;;;4.50;99.90;;;;;;5010640;28;20069;-93
2021/12/05 16:28:56;;;;;;;24.95;15.02;;;4.50;99.90;;;;;;5029772;28;20038;-78
2021/12/05 16:31:30;;;;;;;20.50;15.05;;;4.50;99.90;;;;;;5011573;28;20099;-77
2021/12/05 16:34:00;;;;;;;20.42;13.77;;;4.50;99.90;;;;;;5030452;28;20084;-87
2021/12/05 16:36:36;;;;;;;21.65;13.63;;;4.50;99.90;;;;;;5027833;28;20049;-92
2021/12/05 16:39:12;;;;;;;23.38;13.45;;;4.50;99.90;;;;;;5009354;28;20398;-78
2021/12/05 16:41:44;;;;;;;23.23;13.90;;;4.50;99.90;;;;;;5006359;28;20124;-86
2021/12/05 16:44:15;;;;;;;26.00;14.88;;;5.00;99.90;;;;;;4991984;28;20468;-89
2021/12/05 16:47:18;;;;;;;24.10;13.13;;;4.50;99.90;;;;;;5004489;28;20045;-87
2021/12/05 16:49:47;;;;;;;20.17;13.52;;;4.50;99.90;;;;;;4924429;29;20461;-80
2021/12/05 16:52:24;;;;;;;24.00;13.93;;;4.50;99.90;;;;;;5007043;28;20568;-86
2021/12/05 16:54:55;;;;;;;26.60;16.48;;;4.40;99.90;;;;;;5028250;28;20064;-76
2021/12/05 16:57:31;;;;;;;63.50;45.45;;;4.50;99.90;;;;;;4999970;28;20049;-90
2021/12/05 17:00:03;;;;;;;58.35;41.40;;;4.50;99.90;;;;;;5005570;28;20041;-84
2021/12/05 17:02:40;;;;;;;41.92;29.63;;;4.60;99.90;;;;;;4991979;28;20457;-81
2021/12/05 17:05:16;;;;;;;29.25;20.42;;;4.50;99.90;;;;;;5000823;28;20033;-89
2021/12/05 17:07:57;;;;;;;33.95;22.45;;;4.50;99.90;;;;;;4992268;28;20053;-79
2021/12/05 17:10:22;;;;;;;35.50;23.38;;;4.50;99.90;;;;;;5011442;28;20129;-88
2021/12/05 17:12:49;;;;;;;27.88;19.23;;;4.50;99.90;;;;;;5006760;28;20168;-88
2021/12/05 17:15:27;;;;;;;43.95;26.98;;;4.50;99.90;;;;;;5010407;28;20037;-86
2021/12/05 17:18:01;;;;;;;46.85;29.60;;;4.50;99.90;;;;;;5010123;28;20077;-81
2021/12/05 17:20:34;;;;;;;38.13;24.77;;;4.30;99.90;;;;;;5011925;28;20383;-92
2021/12/05 17:23:22;;;;;;;41.65;26.13;;;4.50;99.90;;;;;;5030657;28;20048;-92
2021/12/05 17:25:53;;;;;;;45.42;26.65;;;4.50;99.90;;;;;;5007578;28;20049;-79
2021/12/05 17:28:42;;;;;;;35.28;24.23;;;4.50;99.90;;;;;;4681084;28;10000039;-82
2021/12/05 17:31:12;;;;;;;40.42;24.98;;;4.50;99.90;;;;;;4991507;28;20604;-82
2021/12/05 17:33:40;;;;;;;37.20;24.35;;;4.40;99.90;;;;;;5032598;28;20890;-91
2021/12/05 17:36:14;;;;;;;37.95;27.38;;;4.40;99.90;;;;;;5032440;28;20084;-94
2021/12/05 17:38:44;;;;;;;42.00;26.37;;;4.50;99.90;;;;;;5032687;28;20136;-96
2021/12/05 17:41:10;;;;;;;32.95;25.52;;;4.40;99.90;;;;;;5030275;28;20276;-91
2021/12/05 17:43:36;;;;;;;37.95;25.23;;;4.40;99.90;;;;;;5030424;28;20052;-85
2021/12/05 17:46:05;;;;;;;38.00;24.40;;;4.40;99.90;;;;;;5028439;28;20061;-75
2021/12/05 17:48:31;;;;;;;37.35;23.75;;;4.40;99.90;;;;;;5027581;28;20422;-81
2021/12/05 17:50:57;;;;;;;32.08;22.73;;;4.40;99.90;;;;;;5002299;28;20133;-77
2021/12/05 17:53:30;;;;;;;30.40;21.13;;;4.30;99.90;;;;;;5011690;28;20038;-83
2021/12/05 17:56:06;;;;;;;29.17;20.50;;;4.30;99.90;;;;;;5032108;28;20053;-90
2021/12/05 17:59:12;;;;;;;32.38;21.83;;;4.30;99.90;;;;;;5023797;28;20141;-77
2021/12/05 18:04:07;;;;;;;32.33;18.80;;;4.40;99.90;;;;;;5042734;28;20052;-77
2021/12/05 18:06:34;;;;;;;24.08;17.25;;;4.30;99.90;;;;;;5033471;22;20049;-90